Time;durP1;ratioP1;P1;durP2;ratioP2;P2;SDS_P1;SDS_P2;PMS_P1;PMS_P2;Temp;Humidity;BMP_temperature;BMP_pressure;BME280_temperature;BME280_humidity;BME280_pressure;Samples;Min_cycle;Max_cycle;Signal;HPM_P1;HPM_P2
2021/04/20 00:02:25;;;;;;;46.03;25.03;;;6.50;86.00;;;6.99;67.12;97729.72;4927838;29;20055;-50
2021/04/20 00:04:53;;;;;;;45.17;27.30;;;6.40;85.90;;;6.99;66.85;97729.72;4944465;29;20342;-54
2021/04/20 00:07:21;;;;;;;40.57;24.80;;;6.40;86.10;;;6.97;67.26;97727.19;4927008;29;20055;-49
2021/04/20 00:09:49;;;;;;;40.93;25.43;;;6.40;85.40;;;6.92;66.84;97725.94;4945164;29;20050;-48
2021/04/20 00:12:16;;;;;;;46.53;26.80;;;6.30;85.30;;;6.83;67.53;97722.31;4944755;29;20138;-49
2021/04/20 00:14:43;;;;;;;42.40;26.57;;;6.20;85.80;;;6.81;67.41;97713.66;4944175;29;20044;-46
2021/04/20 00:17:11;;;;;;;39.43;26.33;;;6.20;86.50;;;6.80;67.11;97718.09;4944235;29;20220;-48
2021/04/20 00:19:39;;;;;;;43.93;25.87;;;6.20;85.90;;;6.79;66.86;97719.09;4944585;29;20040;-52
2021/04/20 00:22:06;;;;;;;44.63;26.50;;;6.20;85.50;;;6.75;67.13;97719.50;4944651;29;20058;-50
2021/04/20 00:24:34;;;;;;;47.40;27.10;;;6.10;85.80;;;6.68;67.50;97711.25;4944119;29;20362;-49
2021/04/20 00:27:01;;;;;;;51.73;27.77;;;6.10;86.30;;;6.68;67.73;97705.97;4945056;29;20067;-47
2021/04/20 00:29:29;;;;;;;39.93;25.17;;;6.10;86.70;;;6.67;67.71;97706.94;4948203;29;20059;-46
2021/04/20 00:31:56;;;;;;;47.97;27.70;;;6.20;86.50;;;6.71;67.95;97703.06;4947832;29;20249;-47
2021/04/20 00:34:24;;;;;;;46.87;25.73;;;6.20;86.20;;;6.73;67.88;97694.97;4929147;29;20065;-45
2021/04/20 00:36:51;;;;;;;47.77;26.73;;;6.20;86.10;;;6.75;66.97;97703.63;4947711;29;20110;-47
2021/04/20 00:39:18;;;;;;;44.13;25.63;;;6.20;85.80;;;6.75;67.53;97703.63;4948044;29;20341;-51
2021/04/20 00:41:58;;;;;;;45.07;26.87;;;6.20;85.50;;;6.72;67.49;97699.44;4947330;29;20066;-47
2021/04/20 00:44:25;;;;;;;43.20;25.70;;;6.10;86.30;;;6.72;66.83;97695.94;4947149;29;20052;-49
2021/04/20 00:46:53;;;;;;;42.33;24.97;;;6.10;85.50;;;6.72;67.42;97695.94;4947496;29;20043;-48
2021/04/20 00:49:20;;;;;;;45.40;27.80;;;6.20;85.50;;;6.72;67.71;97699.44;4947843;29;20052;-48
2021/04/20 00:51:49;;;;;;;48.03;25.60;;;6.20;85.30;;;6.72;67.33;97698.59;4946851;29;20372;-48
2021/04/20 00:54:17;;;;;;;43.60;26.10;;;6.20;85.10;;;6.69;67.34;97695.25;4945689;29;20363;-49
2021/04/20 00:56:46;;;;;;;47.47;27.40;;;6.20;85.10;;;6.69;67.37;97695.25;4930628;29;20043;-50
2021/04/20 00:59:14;;;;;;;42.80;26.93;;;6.20;85.20;;;6.69;66.49;97697.06;4947530;29;20080;-48
2021/04/20 01:01:43;;;;;;;47.90;28.43;;;6.20;85.10;;;6.67;67.07;97697.19;4947382;29;20051;-50
2021/04/20 01:04:16;;;;;;;48.80;29.13;;;6.10;84.70;;;6.65;67.13;97700.94;4945730;29;20249;-51
2021/04/20 01:06:46;;;;;;;42.65;25.15;;;6.10;84.80;;;6.64;66.73;97696.63;4947478;29;20056;-47
2021/04/20 01:09:16;;;;;;;44.03;25.77;;;6.10;84.50;;;6.61;66.96;97694.25;4947219;29;20055;-47
2021/04/20 01:11:45;;;;;;;43.40;24.23;;;6.10;84.70;;;6.60;66.99;97695.22;4945771;29;20066;-51
2021/04/20 01:14:13;;;;;;;43.33;26.77;;;6.10;84.60;;;6.58;67.44;97697.16;4947341;29;20047;-49
2021/04/20 01:16:40;;;;;;;44.33;24.53;;;6.00;84.60;;;6.56;66.67;97689.38;4946230;29;20051;-49
2021/04/20 01:19:13;;;;;;;42.03;24.97;;;6.00;84.80;;;6.54;67.32;97688.66;4946984;29;20044;-51
2021/04/20 01:21:43;;;;;;;50.40;25.97;;;6.00;85.00;;;6.52;67.00;97690.59;4947367;29;20048;-49
2021/04/20 01:24:10;;;;;;;64.83;28.97;;;6.00;84.70;;;6.48;66.70;97690.03;4946024;29;20349;-49
2021/04/20 01:26:42;;;;;;;42.60;25.73;;;5.90;84.80;;;6.47;66.36;97692.81;4947031;29;20371;-46
2021/04/20 01:29:11;;;;;;;56.43;26.80;;;5.90;85.20;;;6.46;67.43;97688.50;4946903;29;20047;-46
2021/04/20 01:31:42;;;;;;;89.03;25.73;;;6.00;85.80;;;6.45;66.84;97692.94;4945861;29;20056;-52
2021/04/20 01:34:10;;;;;;;72.23;24.77;;;5.90;85.90;;;6.41;67.42;97694.19;4946197;29;20051;-48
2021/04/20 01:36:38;;;;;;;114.80;30.93;;;5.90;86.40;;;6.36;66.90;97691.13;4930283;29;20238;-50
2021/04/20 01:39:09;;;;;;;153.90;28.80;;;5.80;86.60;;;6.33;67.50;97695.81;4944115;29;20051;-50
2021/04/20 01:41:38;;;;;;;89.90;27.40;;;5.70;86.80;;;6.27;67.39;97695.38;4947023;29;20340;-50
2021/04/20 01:44:07;;;;;;;107.03;32.37;;;5.60;87.40;;;6.16;67.39;97690.19;4946064;29;20059;-47
2021/04/20 01:46:35;;;;;;;125.97;33.53;;;5.50;88.50;;;6.15;68.05;97692.97;4946957;29;20058;-48
2021/04/20 01:49:03;;;;;;;152.10;33.20;;;5.50;88.90;;;6.14;68.03;97691.28;4946464;29;20056;-48
2021/04/20 01:51:31;;;;;;;171.43;35.93;;;5.60;89.50;;;6.14;67.63;97686.84;4947143;29;20077;-47
2021/04/20 01:53:58;;;;;;;144.70;39.53;;;5.60;88.70;;;6.12;68.35;97694.06;4945789;29;20056;-46
2021/04/20 01:56:28;;;;;;;203.27;41.33;;;5.60;89.60;;;6.11;68.82;97695.03;4946693;29;20054;-51
2021/04/20 01:58:58;;;;;;;170.43;37.40;;;5.60;89.00;;;6.05;68.27;97698.22;4945133;29;20047;-48
2021/04/20 02:01:28;;;;;;;91.03;29.13;;;5.40;88.70;;;6.01;68.17;97695.00;4945259;29;20051;-48
2021/04/20 02:03:56;;;;;;;93.37;29.73;;;5.40;89.80;;;6.02;68.51;97695.81;4946143;29;20367;-50
2021/04/20 02:06:25;;;;;;;123.87;31.67;;;5.40;89.60;;;6.04;68.81;97692.06;4946641;29;20047;-50
2021/04/20 02:08:53;;;;;;;76.17;29.53;;;5.50;89.90;;;6.03;68.22;97697.47;4945740;29;20056;-48
2021/04/20 02:11:23;;;;;;;61.33;27.50;;;5.50;89.90;;;6.05;68.63;97700.88;4944478;29;20056;-49
2021/04/20 02:13:52;;;;;;;65.80;28.30;;;5.50;90.00;;;6.07;68.63;97696.28;4945867;29;20047;-49
2021/04/20 02:16:21;;;;;;;70.00;27.97;;;5.50;89.40;;;6.10;68.92;97690.72;4945460;29;20039;-46
2021/04/20 02:18:55;;;;;;;47.23;26.87;;;5.60;89.30;;;6.15;68.57;97693.81;4944798;29;20048;-48
2021/04/20 02:21:23;;;;;;;61.70;26.92;;;5.60;89.00;;;6.17;68.13;97694.50;4945337;29;20048;-48
2021/04/20 02:23:52;;;;;;;57.40;27.67;;;5.70;89.30;;;6.13;68.66;97693.09;4945402;29;20070;-50
2021/04/20 02:26:29;;;;;;;125.40;35.80;;;5.60;89.30;;;6.14;68.48;97684.19;4946018;29;20052;-47
2021/04/20 02:29:03;;;;;;;162.33;39.63;;;5.70;89.30;;;6.16;68.50;97687.53;4945763;29;20285;-49
2021/04/20 02:31:37;;;;;;;194.82;36.25;;;5.60;89.20;;;6.17;68.33;97683.09;4945996;29;20062;-48
2021/04/20 02:34:07;;;;;;;130.50;35.53;;;5.60;89.60;;;6.18;68.68;97690.88;4945861;29;20053;-50
2021/04/20 02:36:44;;;;;;;196.07;41.03;;;5.60;89.30;;;6.17;68.78;97689.22;4945908;29;20044;-48
2021/04/20 02:39:13;;;;;;;279.13;39.37;;;5.70;89.80;;;6.17;68.74;97689.22;4944929;29;20219;-48
2021/04/20 02:41:44;;;;;;;202.13;41.87;;;5.70;89.70;;;6.16;68.39;97692.81;4945873;29;20062;-47
2021/04/20 02:44:12;;;;;;;131.83;37.03;;;5.60;89.70;;;6.13;68.63;97692.25;4946057;29;20238;-51
2021/04/20 02:46:42;;;;;;;139.03;33.87;;;5.50;89.60;;;6.11;68.81;97693.22;4945659;29;20056;-47
2021/04/20 02:49:12;;;;;;;140.27;34.00;;;5.60;90.00;;;6.10;69.24;97688.06;4944191;29;20043;-47
2021/04/20 02:51:41;;;;;;;91.27;31.10;;;5.50;90.00;;;6.11;68.69;97685.31;4944900;29;20062;-48
2021/04/20 02:54:10;;;;;;;81.07;29.40;;;5.60;90.10;;;6.16;68.77;97692.00;4928362;29;20052;-47
2021/04/20 02:56:39;;;;;;;75.70;28.60;;;5.70;89.80;;;6.17;69.11;97683.09;4945567;29;20057;-48
2021/04/20 02:59:11;;;;;;;61.30;26.30;;;5.70;89.10;;;6.15;68.95;97683.22;4944789;29;20063;-48
2021/04/20 03:01:43;;;;;;;58.20;25.30;;;5.70;88.80;;;6.15;68.97;97679.75;4928860;29;20051;-49
2021/04/20 03:04:15;;;;;;;109.03;28.50;;;5.60;88.60;;;6.09;69.01;97678.47;4928698;29;20062;-50
2021/04/20 03:06:44;;;;;;;70.70;29.27;;;5.60;89.10;;;6.03;68.57;97679.84;4944533;29;20060;-47
2021/04/20 03:09:13;;;;;;;313.50;49.33;;;5.50;89.00;;;5.95;68.72;97673.50;4945001;29;20257;-51
2021/04/20 03:11:53;;;;;;;159.70;34.97;;;5.40;89.40;;;5.87;69.35;97674.16;4944200;29;20047;-46
2021/04/20 03:14:21;;;;;;;181.93;36.80;;;5.30;90.20;;;5.72;70.27;97668.38;4944193;29;20051;-48
2021/04/20 03:16:49;;;;;;;135.50;35.00;;;5.30;91.20;;;5.74;69.00;97669.09;4943937;29;20048;-51
2021/04/20 03:19:17;;;;;;;108.30;31.70;;;5.20;90.30;;;5.64;69.75;97663.75;4945189;29;20043;-46
2021/04/20 03:21:48;;;;;;;101.67;29.37;;;5.20;90.40;;;5.63;70.33;97666.50;4943073;29;20051;-46
2021/04/20 03:24:32;;;;;;;104.60;26.80;;;5.20;90.00;;;5.61;70.21;97664.00;4945220;29;20047;-48
2021/04/20 03:27:00;;;;;;;152.90;28.15;;;5.20;90.90;;;5.58;70.45;97666.88;4944845;29;20044;-47
2021/04/20 03:29:27;;;;;;;132.80;31.30;;;5.10;91.10;;;5.61;69.60;97671.91;4945095;29;20249;-48
2021/04/20 03:31:55;;;;;;;149.00;29.97;;;5.10;90.30;;;5.66;69.52;97666.25;4944886;29;20054;-51
2021/04/20 03:34:35;;;;;;;156.87;35.97;;;5.20;90.50;;;5.69;69.10;97666.00;4943349;29;20036;-46
2021/04/20 03:37:08;;;;;;;119.03;30.13;;;5.20;90.60;;;5.71;69.24;97659.59;4943938;29;20065;-51
2021/04/20 03:39:42;;;;;;;162.10;34.85;;;5.20;90.70;;;5.76;69.35;97661.00;4943930;29;20048;-47
2021/04/20 03:42:18;;;;;;;122.87;33.20;;;5.30;90.50;;;5.73;69.06;97667.41;4944019;29;20058;-48
2021/04/20 03:44:53;;;;;;;87.00;29.50;;;5.20;90.10;;;5.72;69.08;97661.28;4944956;29;20062;-48
2021/04/20 03:47:28;;;;;;;104.83;31.00;;;5.20;89.80;;;5.71;69.31;97659.59;4944622;29;20062;-46
2021/04/20 03:49:58;;;;;;;95.93;32.20;;;5.10;90.10;;;5.71;69.17;97658.78;4943145;29;20051;-47
2021/04/20 03:52:36;;;;;;;117.97;31.20;;;5.10;89.70;;;5.70;69.43;97655.31;4943749;29;20056;-48
2021/04/20 03:55:04;;;;;;;86.70;30.03;;;5.10;90.20;;;5.67;69.08;97655.56;4943855;29;20047;-48
2021/04/20 03:57:35;;;;;;;72.33;27.93;;;5.10;89.80;;;5.67;69.35;97655.56;4942218;29;20372;-49
2021/04/20 04:00:07;;;;;;;103.47;29.50;;;5.10;89.80;;;5.67;69.80;97654.72;4943837;29;20050;-47
2021/04/20 04:02:39;;;;;;;56.67;27.03;;;5.10;89.70;;;5.70;68.86;97654.47;4945045;29;20257;-50
2021/04/20 04:05:11;;;;;;;45.17;25.13;;;5.20;89.50;;;5.71;69.10;97648.19;4948888;29;20220;-47
2021/04/20 04:07:39;;;;;;;41.00;22.23;;;5.20;88.40;;;5.67;68.90;97649.44;4946360;29;20058;-47
2021/04/20 04:10:07;;;;;;;44.63;21.67;;;5.10;87.60;;;5.62;68.71;97652.47;4946587;29;20219;-48
2021/04/20 04:12:41;;;;;;;50.00;23.83;;;5.00;87.30;;;5.61;68.80;97660.53;4947572;29;20055;-50
2021/04/20 04:15:13;;;;;;;75.20;24.83;;;5.00;88.10;;;5.58;68.59;97652.84;4948114;29;20055;-48
2021/04/20 04:17:45;;;;;;;130.27;26.33;;;5.00;88.20;;;5.53;68.94;97650.59;4947022;29;20043;-46
2021/04/20 04:20:15;;;;;;;98.07;25.23;;;4.90;88.30;;;5.49;68.42;97652.66;4948672;29;20052;-49
2021/04/20 04:23:13;;;;;;;118.53;26.20;;;4.80;89.20;;;5.38;68.21;97655.38;4946249;29;20069;-48
2021/04/20 04:26:00;;;;;;;126.93;29.33;;;4.70;89.10;;;5.32;68.81;97661.16;4937664;29;20060;-50
2021/04/20 04:28:30;;;;;;;43.23;24.20;;;4.70;89.10;;;5.30;68.83;97658.63;4945727;29;20065;-47
2021/04/20 04:31:03;;;;;;;44.63;26.07;;;4.70;89.20;;;5.36;69.35;97656.47;4962132;23;20243;-56
2021/04/20 04:33:34;;;;;;;62.63;30.17;;;4.80;89.50;;;5.38;69.09;97657.19;4978004;28;20061;-57
2021/04/20 04:36:03;;;;;;;95.97;32.33;;;4.80;88.90;;;5.40;69.10;97661.34;4969012;28;20047;-57
2021/04/20 04:38:32;;;;;;;58.77;28.90;;;4.90;88.30;;;5.40;68.79;97664.00;4952669;28;20056;-57
2021/04/20 04:41:00;;;;;;;59.30;28.73;;;4.80;87.60;;;5.37;68.36;97663.41;4986720;28;20271;-57
2021/04/20 04:43:28;;;;;;;49.77;24.93;;;4.80;87.30;;;5.35;68.84;97668.84;4986572;28;20231;-56
2021/04/20 04:45:57;;;;;;;75.77;29.50;;;4.70;87.60;;;5.35;68.97;97674.13;4969704;28;20050;-57
2021/04/20 04:48:26;;;;;;;90.47;32.57;;;4.80;88.10;;;5.31;68.29;97676.16;4986249;28;20244;-56
2021/04/20 04:50:54;;;;;;;109.53;35.30;;;4.70;87.80;;;5.23;68.31;97669.84;4969520;28;20059;-56
2021/04/20 04:53:22;;;;;;;101.30;32.13;;;4.60;88.20;;;5.20;68.71;97670.09;4969397;28;20053;-57
2021/04/20 04:55:49;;;;;;;77.77;28.77;;;4.60;88.60;;;5.19;68.24;97666.59;4968871;28;20057;-57
2021/04/20 04:58:19;;;;;;;103.90;30.63;;;4.50;88.60;;;5.17;68.24;97670.34;4986023;28;20053;-58
2021/04/20 05:00:48;;;;;;;81.47;28.13;;;4.50;88.50;;;5.13;68.45;97669.75;4966729;28;20051;-58
2021/04/20 05:03:16;;;;;;;66.37;27.43;;;4.40;88.50;;;5.07;68.47;97665.00;4969368;28;20248;-56
2021/04/20 05:05:47;;;;;;;56.70;25.27;;;4.50;89.50;;;5.04;69.10;97663.44;4985475;28;20054;-56
2021/04/20 05:08:15;;;;;;;53.83;23.40;;;4.40;89.20;;;5.04;69.00;97665.22;4952494;28;20229;-56
2021/04/20 05:10:43;;;;;;;52.33;25.63;;;4.40;89.30;;;5.05;68.98;97664.28;4986165;28;20050;-57
2021/04/20 05:13:11;;;;;;;63.40;30.83;;;4.50;89.20;;;5.06;68.87;97665.94;4985121;28;20055;-58
2021/04/20 05:15:38;;;;;;;63.83;35.83;;;4.50;89.10;;;5.06;68.98;97669.44;4968535;28;20051;-57
2021/04/20 05:18:10;;;;;;;63.40;38.33;;;4.50;89.30;;;5.08;69.33;97666.69;4968747;28;20218;-56
2021/04/20 05:20:44;;;;;;;51.87;34.67;;;4.50;89.40;;;5.12;68.89;97673.38;4985406;28;20054;-55
2021/04/20 05:23:18;;;;;;;50.33;30.38;;;4.60;89.20;;;5.18;68.89;97669.41;4985890;28;20046;-57
2021/04/20 05:25:45;;;;;;;;;;;4.70;89.10;;;5.20;68.49;97665.66;4969270;28;20054;-57
2021/04/20 05:28:13;;;;;;;34.70;19.90;;;4.70;89.20;;;5.23;68.25;97669.84;4985190;28;19918;-57
2021/04/20 05:30:40;;;;;;;35.43;19.43;;;4.70;87.90;;;5.23;69.09;97668.03;4984894;28;20054;-57
2021/04/20 05:33:08;;;;;;;27.77;17.97;;;4.70;87.30;;;5.22;68.85;97671.66;4985703;28;20051;-55
2021/04/20 05:35:35;;;;;;;27.50;17.60;;;4.70;87.20;;;5.23;68.35;97672.47;4967671;28;20053;-56
2021/04/20 05:38:02;;;;;;;32.80;18.23;;;4.70;87.10;;;5.22;68.24;97676.09;4984847;28;20232;-57
2021/04/20 05:40:31;;;;;;;27.03;17.00;;;4.70;87.00;;;5.19;68.37;97682.44;4985441;28;20057;-57
2021/04/20 05:42:59;;;;;;;26.80;18.27;;;4.70;87.10;;;5.20;68.50;97675.38;4985485;28;20370;-57
2021/04/20 05:45:26;;;;;;;26.60;17.60;;;4.70;87.00;;;5.21;68.32;97680.50;4973585;28;20053;-54
2021/04/20 05:47:54;;;;;;;27.80;17.30;;;4.70;87.00;;;5.22;68.83;97682.22;4965630;29;20257;-58
2021/04/20 05:50:25;;;;;;;27.87;16.33;;;4.70;86.80;;;5.21;68.46;97683.16;4965868;29;20051;-58
2021/04/20 05:52:52;;;;;;;28.90;16.23;;;4.60;87.00;;;5.21;68.34;97685.78;4948906;29;20349;-56
2021/04/20 05:55:20;;;;;;;28.43;15.90;;;4.70;87.60;;;5.21;68.14;97685.78;4965190;29;20252;-52
2021/04/20 05:57:51;;;;;;;36.27;16.13;;;4.70;87.50;;;5.16;68.91;97682.72;4965116;29;20233;-54
2021/04/20 06:00:22;;;;;;;30.47;15.87;;;4.70;88.40;;;5.15;69.01;97678.38;4965614;29;20047;-54
2021/04/20 06:02:54;;;;;;;33.63;14.83;;;4.70;88.20;;;5.11;68.88;97672.53;4963104;29;20352;-53
2021/04/20 06:05:26;;;;;;;38.33;20.33;;;4.70;88.00;;;5.02;68.64;97670.66;4964915;29;20059;-57
2021/04/20 06:08:02;;;;;;;31.00;19.87;;;4.60;88.10;;;5.01;69.13;97676.88;4947672;29;20442;-53
2021/04/20 06:10:31;;;;;;;27.43;17.87;;;4.60;88.70;;;5.02;69.41;97689.13;4948158;29;20055;-53
2021/04/20 06:12:59;;;;;;;27.53;19.97;;;4.60;89.10;;;5.10;69.76;97680.59;4949355;29;20039;-54
2021/04/20 06:15:27;;;;;;;33.60;21.53;;;4.70;90.00;;;5.15;68.78;97686.31;4948619;29;20043;-56
2021/04/20 06:17:56;;;;;;;31.97;20.13;;;4.70;90.10;;;5.24;69.76;97682.09;4964001;29;20055;-50
2021/04/20 06:20:25;;;;;;;31.00;19.60;;;4.80;90.00;;;5.35;69.36;97687.31;4948111;29;20256;-54
2021/04/20 06:22:55;;;;;;;27.30;18.80;;;5.10;90.20;;;5.45;69.74;97696.16;4964480;29;20073;-55
2021/04/20 06:25:23;;;;;;;28.60;17.73;;;5.20;89.90;;;5.54;69.29;97697.16;4963562;28;20229;-57
2021/04/20 06:27:51;;;;;;;31.80;18.47;;;5.30;90.00;;;5.62;70.01;97691.25;4947677;29;20046;-59
2021/04/20 06:30:20;;;;;;;59.77;20.47;;;5.40;89.40;;;5.65;69.49;97691.81;4948115;29;20069;-56
2021/04/20 06:32:49;;;;;;;28.00;18.73;;;5.40;89.20;;;5.71;69.41;97693.94;4948152;29;20344;-52
2021/04/20 06:35:22;;;;;;;29.43;17.57;;;5.40;89.50;;;5.81;69.09;97691.34;4946013;29;20066;-50
2021/04/20 06:37:52;;;;;;;30.52;19.30;;;5.50;90.30;;;5.86;69.76;97697.09;4963850;29;20317;-54
2021/04/20 06:40:39;;;;;;;39.37;19.07;;;5.60;90.00;;;5.92;69.46;97691.28;4965029;29;20050;-56
2021/04/20 06:43:13;;;;;;;29.30;19.27;;;5.70;89.90;;;5.94;69.32;97682.41;4948541;29;20043;-55
2021/04/20 06:45:49;;;;;;;31.47;19.57;;;5.60;89.80;;;5.94;69.92;97682.41;4947435;29;20051;-57
2021/04/20 06:48:51;;;;;;;31.52;19.45;;;5.70;90.70;;;6.02;69.80;97695.81;4964566;29;20043;-54
2021/04/20 06:51:20;;;;;;;36.77;23.53;;;5.80;91.60;;;6.15;70.45;97701.75;4964779;29;20059;-57
2021/04/20 06:54:19;;;;;;;34.20;20.53;;;6.00;93.10;;;6.26;71.39;97696.38;4963707;29;20061;-56
2021/04/20 06:57:15;;;;;;;46.40;18.30;;;6.10;93.00;;;6.29;71.14;97714.59;4946951;29;20054;-56
2021/04/20 07:00:05;;;;;;;62.70;18.87;;;6.10;92.50;;;6.28;70.75;97714.72;4949028;29;20209;-53
2021/04/20 07:03:07;;;;;;;40.83;18.50;;;6.10;92.40;;;6.32;70.26;97713.50;4963602;29;20062;-54
2021/04/20 07:05:55;;;;;;;29.73;17.37;;;6.10;91.70;;;6.42;70.01;97714.38;4950902;29;20055;-52
2021/04/20 07:08:52;;;;;;;39.23;18.37;;;6.30;91.40;;;6.52;70.53;97710.94;4948057;29;20059;-59
2021/04/20 07:11:20;;;;;;;28.30;16.60;;;6.60;91.10;;;6.65;70.72;97709.72;4964566;29;20063;-58
2021/04/20 07:13:53;;;;;;;29.90;16.37;;;6.70;91.00;;;6.76;70.78;97713.22;4964242;29;20222;-58
2021/04/20 07:16:59;;;;;;;28.20;17.50;;;6.80;90.50;;;6.81;70.07;97711.03;4948010;29;20050;-58
2021/04/20 07:19:53;;;;;;;35.97;18.00;;;6.80;90.30;;;6.89;70.66;97709.34;4935197;29;20245;-57
2021/04/20 07:23:12;;;;;;;31.98;17.80;;;6.90;90.40;;;6.96;70.04;97703.50;4964361;29;20049;-59
2021/04/20 07:25:59;;;;;;;38.67;18.13;;;6.90;89.70;;;7.01;70.73;97702.13;4964080;29;20043;-60
2021/04/20 07:29:04;;;;;;;32.87;16.83;;;6.90;89.90;;;6.98;70.23;97698.91;4964050;29;20057;-59
2021/04/20 07:32:27;;;;;;;36.03;20.35;;;6.80;89.80;;;6.85;72.03;97702.66;4964233;29;20248;-58
2021/04/20 07:35:09;;;;;;;37.80;21.07;;;6.80;91.40;;;6.93;71.42;97694.03;4940606;29;20069;-60
2021/04/20 07:37:49;;;;;;;38.67;22.97;;;6.80;92.30;;;7.01;71.61;97696.81;4963821;28;20049;-60
2021/04/20 07:41:02;;;;;;;38.47;22.87;;;6.90;92.70;;;7.15;71.51;97692.09;4963933;29;20043;-60
2021/04/20 07:44:00;;;;;;;35.27;22.00;;;7.10;92.90;;;7.28;71.38;97698.81;4964430;29;20047;-49
2021/04/20 07:46:57;;;;;;;39.03;24.03;;;7.30;92.50;;;7.42;71.53;97704.66;4963948;29;20229;-55
2021/04/20 07:49:47;;;;;;;45.07;24.70;;;7.40;92.30;;;7.54;71.20;97702.69;4964013;29;20057;-53
2021/04/20 07:52:31;;;;;;;47.33;24.57;;;7.60;92.10;;;7.67;71.69;97703.25;4963903;29;20061;-53
2021/04/20 07:55:25;;;;;;;32.57;20.20;;;7.70;92.10;;;7.81;71.30;97705.47;4947003;29;20368;-53
2021/04/20 07:58:00;;;;;;;30.53;20.07;;;8.00;92.60;;;7.91;71.71;97702.81;4940148;29;20047;-54
2021/04/20 08:01:08;;;;;;;29.37;19.77;;;8.10;91.30;;;7.98;71.53;97703.88;4945721;29;20065;-53
2021/04/20 08:04:07;;;;;;;31.55;20.33;;;8.20;91.20;;;8.09;71.41;97705.53;4892978;29;20063;-53
2021/04/20 08:06:36;;;;;;;29.67;18.53;;;8.30;91.20;;;8.19;71.71;97705.50;4959616;28;20057;-54
2021/04/20 08:09:11;;;;;;;26.03;17.60;;;8.40;91.10;;;8.28;71.68;97702.81;4953991;29;20345;-53
2021/04/20 08:11:48;;;;;;;27.03;18.30;;;8.50;91.00;;;8.37;71.50;97709.06;4946672;29;20059;-53
2021/04/20 08:14:44;;;;;;;30.80;19.63;;;8.50;91.10;;;8.46;71.25;97710.88;4963250;29;20053;-55
2021/04/20 08:17:21;;;;;;;27.83;19.80;;;8.60;91.40;;;8.54;71.61;97706.66;4959888;29;20051;-54
2021/04/20 08:20:28;;;;;;;30.93;20.57;;;8.70;90.90;;;8.62;71.04;97701.44;4944890;29;20058;-54
2021/04/20 08:22:58;;;;;;;33.07;21.57;;;8.80;91.00;;;8.69;71.42;97699.88;4939262;29;20054;-53
2021/04/20 08:25:29;;;;;;;35.17;21.60;;;8.80;90.60;;;8.77;71.52;97696.50;4947084;29;20070;-53
2021/04/20 08:28:17;;;;;;;35.90;24.27;;;8.90;90.60;;;8.84;71.62;97701.06;4962849;29;20055;-53
2021/04/20 08:30:53;;;;;;;36.93;24.30;;;9.00;90.40;;;8.90;71.36;97701.44;4963490;29;20049;-51
2021/04/20 08:33:29;;;;;;;36.13;23.87;;;9.10;90.30;;;8.96;71.43;97703.50;4946017;29;20055;-55
2021/04/20 08:36:02;;;;;;;40.20;24.97;;;9.10;90.40;;;8.99;71.36;97692.56;4947285;29;20055;-53
2021/04/20 08:38:51;;;;;;;41.17;23.80;;;9.10;90.00;;;9.02;71.37;97703.72;4945738;29;20352;-54
2021/04/20 08:41:41;;;;;;;41.67;25.37;;;9.10;90.00;;;9.02;71.07;97695.75;4963583;29;20043;-53
2021/04/20 08:44:44;;;;;;;40.73;24.93;;;9.10;89.90;;;9.03;71.03;97689.47;4948254;29;20051;-53
2021/04/20 08:47:26;;;;;;;42.00;26.80;;;9.10;90.70;;;9.05;71.16;97695.47;4962851;28;20066;-54
2021/04/20 08:50:18;;;;;;;41.00;25.53;;;9.10;90.50;;;9.07;70.72;97688.19;4951265;29;20357;-54
2021/04/20 08:53:11;;;;;;;43.40;26.40;;;9.10;90.20;;;9.11;70.84;97688.72;4950652;29;20051;-50
2021/04/20 08:56:19;;;;;;;44.83;27.77;;;9.10;90.10;;;9.15;70.87;97692.75;4949876;29;20210;-54
2021/04/20 08:59:11;;;;;;;44.83;26.57;;;9.20;90.00;;;9.17;70.77;97693.44;4965623;29;20059;-55
2021/04/20 09:02:11;;;;;;;43.40;28.37;;;9.20;90.00;;;9.20;70.82;97689.63;4965448;29;20051;-54
2021/04/20 09:05:29;;;;;;;44.13;28.80;;;9.30;89.60;;;9.22;70.87;97691.13;4966061;29;20057;-54
2021/04/20 09:08:36;;;;;;;39.43;28.17;;;9.30;89.50;;;9.28;70.55;97684.38;4966280;29;20340;-53
2021/04/20 09:11:29;;;;;;;39.30;25.57;;;9.30;88.70;;;9.32;70.28;97676.94;4966548;29;20047;-55
2021/04/20 09:14:09;;;;;;;38.30;24.70;;;9.40;88.10;;;9.33;70.01;97679.47;4951880;29;20347;-55
2021/04/20 09:16:58;;;;;;;36.67;24.67;;;9.40;87.80;;;9.40;70.34;97682.34;4966077;29;20055;-55
2021/04/20 09:19:39;;;;;;;31.13;21.83;;;9.50;87.40;;;9.47;70.03;97683.41;4951067;29;20047;-54
2021/04/20 09:22:09;;;;;;;29.00;20.30;;;9.50;86.30;;;9.51;69.67;97678.63;4950065;29;20051;-52
2021/04/20 09:24:58;;;;;;;35.93;22.40;;;9.60;85.30;;;9.57;69.35;97684.13;4966515;29;20047;-51
2021/04/20 09:27:33;;;;;;;28.53;18.23;;;9.70;84.50;;;9.61;68.29;97676.69;4950516;29;20364;-54
2021/04/20 09:30:14;;;;;;;28.00;21.97;;;9.70;83.70;;;9.66;68.85;97685.88;4949993;29;20059;-53
2021/04/20 09:33:14;;;;;;;30.53;21.93;;;9.80;83.90;;;9.75;68.84;97677.97;4950613;29;20081;-53
2021/04/20 09:35:42;;;;;;;27.33;20.30;;;9.90;82.60;;;9.79;68.48;97679.31;4948376;29;20248;-54
2021/04/20 09:38:11;;;;;;;27.00;18.13;;;10.00;82.90;;;9.86;68.41;97675.06;4964547;29;20241;-54
2021/04/20 09:40:41;;;;;;;31.27;20.47;;;10.00;82.50;;;9.93;68.43;97683.25;4949323;29;20047;-53
2021/04/20 09:43:32;;;;;;;30.73;20.70;;;10.10;82.90;;;9.88;67.85;97674.91;4966008;29;20051;-55
2021/04/20 09:46:44;;;;;;;30.60;21.23;;;10.00;79.20;;;9.94;68.15;97676.94;4949571;29;20047;-55
2021/04/20 09:49:39;;;;;;;33.23;21.30;;;10.10;80.90;;;10.00;67.60;97674.50;4955319;28;20061;-52
2021/04/20 09:52:14;;;;;;;28.53;19.93;;;10.20;82.00;;;10.08;67.75;97679.03;4965776;29;20055;-55
2021/04/20 09:54:53;;;;;;;30.80;21.07;;;10.30;82.80;;;10.13;67.96;97684.69;4966067;29;20054;-52
2021/04/20 09:57:25;;;;;;;36.20;23.47;;;10.30;81.60;;;10.16;67.83;97679.06;4946912;29;20043;-52
2021/04/20 09:59:53;;;;;;;34.87;22.27;;;10.40;81.30;;;10.22;67.73;97680.28;4948074;29;20341;-55
2021/04/20 10:02:42;;;;;;;29.90;21.83;;;10.40;81.80;;;10.22;67.18;97691.75;4965018;29;20232;-54
2021/04/20 10:05:27;;;;;;;31.23;20.50;;;10.40;79.30;;;10.24;66.99;97680.94;4965683;29;20051;-53
2021/04/20 10:07:55;;;;;;;;;;;10.50;80.00;;;10.30;66.65;97677.69;4949132;29;20067;-54
2021/04/20 10:11:06;;;;;;;26.27;19.97;;;10.50;79.00;;;10.44;67.37;97684.22;4965774;29;19924;-56
2021/04/20 10:14:12;;;;;;;32.97;22.53;;;10.60;79.00;;;10.51;66.89;97671.13;4889122;29;20056;-54
2021/04/20 10:17:25;;;;;;;33.70;21.13;;;10.70;80.40;;;10.61;66.33;97672.66;4962542;29;20055;-57
2021/04/20 10:20:06;;;;;;;31.30;21.83;;;10.80;80.60;;;10.72;66.71;97662.69;4933186;29;20053;-56
2021/04/20 10:23:04;;;;;;;33.28;21.35;;;10.90;80.20;;;10.79;65.86;97661.06;4948542;29;20047;-52
2021/04/20 10:25:50;;;;;;;28.75;21.02;;;11.00;79.70;;;10.89;66.56;97663.59;4934355;29;20047;-55
2021/04/20 10:28:55;;;;;;;26.37;19.47;;;11.10;79.60;;;10.95;66.38;97663.78;4948277;29;20363;-54
2021/04/20 10:31:53;;;;;;;26.63;19.20;;;11.20;77.40;;;11.01;66.41;97663.13;4948793;29;20077;-52
2021/04/20 10:34:21;;;;;;;26.73;18.83;;;11.30;77.90;;;11.07;65.44;97658.13;4950973;29;20053;-58
2021/04/20 10:36:54;;;;;;;26.98;19.30;;;11.30;78.50;;;11.11;65.34;97659.47;4964964;29;20232;-52
2021/04/20 10:39:27;;;;;;;26.50;18.63;;;11.30;77.80;;;11.14;65.44;97651.97;4964293;29;20059;-58
2021/04/20 10:41:56;;;;;;;28.33;19.10;;;11.40;78.10;;;11.19;65.38;97648.84;4964900;29;20367;-57
2021/04/20 10:44:33;;;;;;;23.83;18.58;;;11.40;77.50;;;11.26;64.78;97649.81;4964939;29;20047;-58
2021/04/20 10:47:01;;;;;;;24.92;17.48;;;11.50;76.70;;;11.27;64.14;97643.50;4947551;29;20081;-54
2021/04/20 10:49:31;;;;;;;21.58;15.40;;;11.50;76.30;;;11.30;63.75;97645.00;4948137;29;20047;-54
2021/04/20 10:51:59;;;;;;;24.20;17.33;;;11.60;75.40;;;11.33;63.94;97644.69;4947922;29;20356;-55
2021/04/20 10:54:34;;;;;;;24.20;16.50;;;11.50;75.40;;;11.35;64.11;97634.69;4964199;29;20047;-57
2021/04/20 10:57:03;;;;;;;21.50;16.30;;;11.60;75.30;;;11.43;63.81;97637.34;4947976;29;20059;-55